Terminal Aerodrome Forecast
Issued by NWS

Home | Current Version | Previous Version | Text Only | Print | Product List | Glossary On
Versions: 1 2 3 4 5 6 7 8 9 10 11 12 13 14 15 16 17 18
755
FTUS44 KLIX 240520
TAFMSY
TAF
KMSY 240520Z 2406/2506 29004KT P6SM SKC
     FM241100 31008KT P6SM SKC
     FM241500 34014G21KT P6SM SKC
     FM250000 32011KT P6SM SKC=

USA.gov is the U.S. government's official web portal to all federal, state and local government web resources and services.